Time;durP1;ratioP1;P1;durP2;ratioP2;P2;SDS_P1;SDS_P2;PMS_P1;PMS_P2;Temp;Humidity;BMP_temperature;BMP_pressure;BME280_temperature;BME280_humidity;BME280_pressure;Samples;Min_cycle;Max_cycle;Signal;HPM_P1;HPM_P2
2021/08/04 00:01:04;;;;;;;2.50;2.00;;;15.10;99.90;;;;;;5031637;28;20467;-77
2021/08/04 00:03:31;;;;;;;3.03;2.47;;;15.10;99.90;;;;;;5032091;28;20467;-76
2021/08/04 00:05:57;;;;;;;2.93;2.67;;;15.10;99.90;;;;;;5032344;28;20507;-77
2021/08/04 00:08:24;;;;;;;4.43;2.70;;;15.10;99.90;;;;;;5035494;28;20468;-77
2021/08/04 00:10:51;;;;;;;3.23;2.30;;;15.10;99.90;;;;;;5033923;28;20467;-77
2021/08/04 00:13:18;;;;;;;2.73;2.53;;;15.10;99.90;;;;;;5036652;28;20492;-77
2021/08/04 00:15:46;;;;;;;2.43;2.23;;;15.00;99.90;;;;;;5037378;28;20484;-77
2021/08/04 00:18:12;;;;;;;3.50;2.07;;;15.00;99.90;;;;;;5038148;28;20919;-77
2021/08/04 00:20:39;;;;;;;2.70;2.50;;;15.00;99.90;;;;;;5037913;28;20463;-77
2021/08/04 00:23:06;;;;;;;2.40;2.13;;;15.00;99.90;;;;;;5037951;28;20479;-77
2021/08/04 00:25:33;;;;;;;5.13;2.20;;;15.00;99.90;;;;;;5036283;28;20476;-77
2021/08/04 00:28:00;;;;;;;2.43;2.23;;;15.00;99.90;;;;;;5036428;28;20464;-78
2021/08/04 00:30:26;;;;;;;2.70;2.33;;;15.00;99.90;;;;;;5035670;28;20467;-77
2021/08/04 00:32:54;;;;;;;2.87;1.60;;;15.00;99.90;;;;;;5035142;28;20491;-77
2021/08/04 00:35:22;;;;;;;2.73;2.27;;;15.00;99.90;;;;;;5035885;28;20858;-77
2021/08/04 00:37:49;;;;;;;1.97;1.63;;;15.00;99.90;;;;;;5035407;28;20460;-78
2021/08/04 00:40:16;;;;;;;3.27;2.23;;;15.00;99.90;;;;;;5034136;28;20471;-77
2021/08/04 00:42:43;;;;;;;2.90;2.10;;;14.90;99.90;;;;;;5032945;28;20960;-77
2021/08/04 00:45:11;;;;;;;3.20;2.30;;;14.90;99.90;;;;;;5033364;28;21034;-77
2021/08/04 00:47:38;;;;;;;2.47;2.27;;;14.90;99.90;;;;;;5034830;28;20463;-77
2021/08/04 00:50:08;;;;;;;2.37;2.17;;;14.90;99.90;;;;;;5036620;28;20460;-77
2021/08/04 00:52:34;;;;;;;2.57;2.37;;;14.90;99.90;;;;;;5038585;28;20452;-76
2021/08/04 00:55:01;;;;;;;2.80;1.97;;;14.90;99.90;;;;;;5038264;28;20480;-77
2021/08/04 00:57:28;;;;;;;2.67;2.07;;;14.90;99.90;;;;;;5038225;28;20468;-78
2021/08/04 00:59:55;;;;;;;2.80;2.20;;;14.90;99.90;;;;;;5038684;28;20739;-77
2021/08/04 01:02:28;;;;;;;3.60;2.30;;;14.90;99.90;;;;;;5038929;28;20463;-77
2021/08/04 01:04:57;;;;;;;2.10;1.90;;;14.90;99.90;;;;;;5038594;28;20476;-77
2021/08/04 01:07:28;;;;;;;2.33;2.00;;;14.90;99.90;;;;;;5037378;28;20459;-77
2021/08/04 01:10:01;;;;;;;3.37;2.40;;;14.90;99.90;;;;;;5037967;28;20467;-77
2021/08/04 01:12:35;;;;;;;2.33;2.10;;;14.80;99.90;;;;;;5038016;28;20463;-77
2021/08/04 01:15:04;;;;;;;2.63;2.43;;;14.80;99.90;;;;;;5036310;28;20487;-77
2021/08/04 01:17:31;;;;;;;2.67;2.20;;;14.80;99.90;;;;;;5036134;28;20468;-76
2021/08/04 01:20:11;;;;;;;3.87;2.10;;;14.80;99.90;;;;;;5035265;28;20472;-77
2021/08/04 01:22:49;;;;;;;3.47;2.13;;;14.70;99.90;;;;;;5035711;28;20839;-77
2021/08/04 01:25:18;;;;;;;2.97;2.27;;;14.70;99.90;;;;;;5035895;28;20480;-77
2021/08/04 01:27:49;;;;;;;2.60;2.17;;;14.70;99.90;;;;;;5035401;28;20464;-77
2021/08/04 01:30:17;;;;;;;2.73;2.17;;;14.80;99.90;;;;;;5035659;28;20464;-77
2021/08/04 01:32:44;;;;;;;4.10;2.87;;;14.70;99.90;;;;;;5034902;28;20820;-77
2021/08/04 01:35:12;;;;;;;2.30;2.10;;;14.70;99.90;;;;;;5035565;28;21011;-77
2021/08/04 01:37:42;;;;;;;3.10;2.17;;;14.80;99.90;;;;;;5034147;28;20456;-77
2021/08/04 01:40:11;;;;;;;2.83;2.17;;;14.80;99.90;;;;;;5035056;28;20503;-77
2021/08/04 01:42:39;;;;;;;5.67;2.27;;;14.80;99.90;;;;;;5034990;28;20526;-77
2021/08/04 01:45:09;;;;;;;2.50;2.10;;;14.70;99.90;;;;;;5035413;28;20495;-77
2021/08/04 01:47:37;;;;;;;2.03;1.80;;;14.70;99.90;;;;;;5036049;28;20471;-76
2021/08/04 01:50:04;;;;;;;4.43;1.87;;;14.70;99.90;;;;;;5035791;28;20464;-77
2021/08/04 01:52:32;;;;;;;4.43;2.43;;;14.70;99.90;;;;;;5035206;28;20464;-77
2021/08/04 01:54:59;;;;;;;2.77;2.50;;;14.70;99.90;;;;;;5034606;28;20503;-77
2021/08/04 01:57:25;;;;;;;4.27;2.30;;;14.70;99.90;;;;;;5033054;28;20464;-76
2021/08/04 01:59:52;;;;;;;2.30;2.10;;;14.60;99.90;;;;;;5032500;28;20471;-77
2021/08/04 02:02:21;;;;;;;2.10;1.90;;;14.60;99.90;;;;;;5034350;28;20456;-77
2021/08/04 02:04:48;;;;;;;2.47;2.27;;;14.60;99.90;;;;;;5034800;28;20464;-77
2021/08/04 02:07:27;;;;;;;2.20;2.00;;;14.60;99.90;;;;;;5034890;28;20464;-77
2021/08/04 02:09:57;;;;;;;2.40;2.20;;;14.60;99.90;;;;;;5035636;28;20798;-76
2021/08/04 02:12:23;;;;;;;2.60;2.40;;;14.60;99.90;;;;;;5036927;28;20544;-77
2021/08/04 02:14:57;;;;;;;2.60;2.40;;;14.50;99.90;;;;;;5035239;28;20496;-77
2021/08/04 02:17:33;;;;;;;3.57;2.07;;;14.50;99.90;;;;;;5034628;28;20468;-77
2021/08/04 02:20:04;;;;;;;2.90;2.03;;;14.50;99.90;;;;;;5036124;28;20493;-77
2021/08/04 02:22:38;;;;;;;2.27;2.07;;;14.50;99.90;;;;;;5036392;28;20464;-77
2021/08/04 02:25:09;;;;;;;3.07;2.43;;;14.50;99.90;;;;;;5036410;28;20476;-77
2021/08/04 02:27:39;;;;;;;2.00;1.80;;;14.40;99.90;;;;;;5036621;28;20460;-77
2021/08/04 02:30:08;;;;;;;2.30;2.10;;;14.40;99.90;;;;;;5035801;28;20464;-76
2021/08/04 02:32:37;;;;;;;2.37;2.17;;;14.50;99.90;;;;;;5035485;28;20511;-77
2021/08/04 02:35:05;;;;;;;2.50;2.30;;;14.50;99.90;;;;;;5036300;28;20504;-77
2021/08/04 02:37:32;;;;;;;2.30;2.10;;;14.50;99.90;;;;;;5036089;28;20472;-77
2021/08/04 02:39:59;;;;;;;3.67;1.83;;;14.50;99.90;;;;;;5035969;28;20471;-77
2021/08/04 02:42:27;;;;;;;3.10;2.30;;;14.50;99.90;;;;;;5036302;28;20464;-77
2021/08/04 02:44:56;;;;;;;2.73;2.43;;;14.50;99.90;;;;;;5036113;28;20484;-77
2021/08/04 02:47:23;;;;;;;2.30;2.10;;;14.50;99.90;;;;;;5035789;28;20460;-77
2021/08/04 02:49:51;;;;;;;3.63;2.27;;;14.50;99.90;;;;;;5034361;28;20471;-77
2021/08/04 02:52:19;;;;;;;2.80;2.50;;;14.50;99.90;;;;;;5035277;28;20464;-77
2021/08/04 02:54:47;;;;;;;2.33;2.10;;;14.50;99.90;;;;;;5033959;28;20480;-77
2021/08/04 02:57:14;;;;;;;2.23;2.03;;;14.50;99.90;;;;;;5035887;28;20509;-77
2021/08/04 02:59:41;;;;;;;2.87;2.30;;;14.50;99.90;;;;;;5034935;28;20963;-77
2021/08/04 03:02:08;;;;;;;2.13;1.93;;;14.50;99.90;;;;;;5035271;28;20460;-77
2021/08/04 03:04:35;;;;;;;2.57;2.20;;;14.50;99.90;;;;;;5036807;28;20461;-78
2021/08/04 03:07:04;;;;;;;2.20;2.00;;;14.50;99.90;;;;;;5034499;28;20464;-77
2021/08/04 03:09:30;;;;;;;2.50;2.10;;;14.50;99.90;;;;;;5033436;28;20460;-77
2021/08/04 03:11:57;;;;;;;2.53;2.33;;;14.50;99.90;;;;;;5033009;28;20464;-77
2021/08/04 03:14:24;;;;;;;2.43;1.97;;;14.50;99.90;;;;;;5033502;28;20488;-77
2021/08/04 03:16:50;;;;;;;2.33;2.13;;;14.50;99.90;;;;;;5033173;28;20487;-77
2021/08/04 03:19:17;;;;;;;2.40;2.20;;;14.50;99.90;;;;;;5032794;28;20955;-77
2021/08/04 03:21:44;;;;;;;3.30;2.40;;;14.50;99.90;;;;;;5033074;28;20470;-77
2021/08/04 03:24:12;;;;;;;2.30;2.10;;;14.50;99.90;;;;;;5033035;28;20475;-77
2021/08/04 03:26:39;;;;;;;2.50;2.20;;;14.50;99.90;;;;;;5031487;28;20488;-76
2021/08/04 03:29:06;;;;;;;2.43;2.10;;;14.50;99.90;;;;;;5030427;28;20978;-76
2021/08/04 03:31:33;;;;;;;2.53;2.20;;;14.50;99.90;;;;;;5031092;28;20934;-77
2021/08/04 03:33:59;;;;;;;2.67;2.17;;;14.50;99.90;;;;;;5031400;28;21135;-77
2021/08/04 03:36:28;;;;;;;2.43;2.23;;;14.50;99.90;;;;;;5034974;28;20491;-78
2021/08/04 03:38:55;;;;;;;4.43;2.27;;;14.50;99.90;;;;;;5034732;28;20510;-77
2021/08/04 03:41:23;;;;;;;3.90;2.17;;;14.50;99.90;;;;;;5033235;28;20460;-77
2021/08/04 03:43:50;;;;;;;2.47;2.27;;;14.50;99.90;;;;;;5031841;28;20460;-77
2021/08/04 03:46:17;;;;;;;4.97;2.20;;;14.40;99.90;;;;;;5032503;28;20516;-77
2021/08/04 03:48:43;;;;;;;3.10;2.80;;;14.40;99.90;;;;;;5031222;28;20471;-76
2021/08/04 03:51:10;;;;;;;2.50;2.27;;;14.50;99.90;;;;;;5031187;28;20464;-76
2021/08/04 03:53:37;;;;;;;2.87;2.50;;;14.40;99.90;;;;;;5033464;28;20488;-77
2021/08/04 03:56:04;;;;;;;2.70;2.40;;;14.40;99.90;;;;;;5032927;28;21000;-77
2021/08/04 03:58:32;;;;;;;2.50;2.30;;;14.40;99.90;;;;;;5028809;28;20464;-76
2021/08/04 04:00:59;;;;;;;2.83;2.60;;;14.40;99.90;;;;;;5028544;28;20460;-77
2021/08/04 04:03:26;;;;;;;2.63;2.43;;;14.40;99.90;;;;;;5030126;28;20468;-75
2021/08/04 04:05:52;;;;;;;2.47;2.27;;;14.50;99.90;;;;;;5032885;28;20480;-77
2021/08/04 04:08:19;;;;;;;2.63;2.30;;;14.40;99.90;;;;;;5032189;28;20463;-77
2021/08/04 04:10:46;;;;;;;6.87;2.63;;;14.40;99.90;;;;;;5031693;28;20483;-77
2021/08/04 04:13:12;;;;;;;2.50;2.30;;;14.40;99.90;;;;;;5031273;28;20452;-76
2021/08/04 04:15:40;;;;;;;3.23;2.50;;;14.40;99.90;;;;;;5026159;28;21006;-76
2021/08/04 04:18:07;;;;;;;2.80;2.20;;;14.40;99.90;;;;;;5030614;28;20444;-75
2021/08/04 04:20:34;;;;;;;2.40;2.20;;;14.40;99.90;;;;;;5029586;28;20956;-76
2021/08/04 04:23:01;;;;;;;4.30;2.33;;;14.40;99.90;;;;;;5028663;28;20948;-76
2021/08/04 04:25:28;;;;;;;3.03;2.10;;;14.40;99.90;;;;;;5032637;28;20622;-77
2021/08/04 04:27:55;;;;;;;3.20;2.80;;;14.30;99.90;;;;;;5032644;28;20459;-77
2021/08/04 04:30:22;;;;;;;2.13;1.93;;;14.30;99.90;;;;;;5032261;28;20460;-76
2021/08/04 04:32:50;;;;;;;3.13;2.53;;;14.30;99.90;;;;;;5030956;28;20456;-75
2021/08/04 04:35:16;;;;;;;4.10;2.40;;;14.30;99.90;;;;;;5030355;28;21026;-76
2021/08/04 04:37:43;;;;;;;2.43;2.23;;;14.20;99.90;;;;;;5032384;28;20472;-76
2021/08/04 04:40:10;;;;;;;2.60;2.20;;;14.20;99.90;;;;;;5032013;28;20841;-76
2021/08/04 04:42:37;;;;;;;2.40;2.20;;;14.20;99.90;;;;;;5032479;28;20461;-75
2021/08/04 04:45:05;;;;;;;3.23;1.90;;;14.20;99.90;;;;;;5032487;28;20483;-75
2021/08/04 04:47:31;;;;;;;2.80;2.17;;;14.20;99.90;;;;;;5032663;28;20468;-75
2021/08/04 04:49:59;;;;;;;3.67;2.37;;;14.20;99.90;;;;;;5031783;28;20472;-76
2021/08/04 04:52:26;;;;;;;3.23;2.10;;;14.20;99.90;;;;;;5031170;28;20464;-75
2021/08/04 04:54:53;;;;;;;2.53;2.33;;;14.20;99.90;;;;;;5030167;28;20499;-76
2021/08/04 04:57:19;;;;;;;2.60;2.40;;;14.30;99.90;;;;;;5032296;28;20476;-76
2021/08/04 04:59:46;;;;;;;3.63;2.77;;;14.30;99.90;;;;;;5031405;28;20873;-74
2021/08/04 05:02:13;;;;;;;2.30;2.10;;;14.30;99.90;;;;;;5032064;28;20507;-75
2021/08/04 05:04:39;;;;;;;4.00;2.80;;;14.30;99.90;;;;;;5031650;28;20506;-75
2021/08/04 05:07:07;;;;;;;2.60;2.40;;;14.30;99.90;;;;;;5032305;28;20501;-75
2021/08/04 05:09:34;;;;;;;2.60;2.30;;;14.30;99.90;;;;;;5031438;28;20467;-75
2021/08/04 05:12:01;;;;;;;3.20;2.47;;;14.30;99.90;;;;;;5031764;28;20464;-74
2021/08/04 05:14:27;;;;;;;4.90;2.00;;;14.30;99.90;;;;;;5031780;28;20476;-75
2021/08/04 05:16:54;;;;;;;2.60;2.40;;;14.40;99.90;;;;;;5031442;28;20827;-75
2021/08/04 05:19:21;;;;;;;3.03;2.70;;;14.40;99.90;;;;;;5031484;28;20842;-76
2021/08/04 05:21:47;;;;;;;3.33;2.53;;;14.40;99.90;;;;;;5034226;28;20486;-75
2021/08/04 05:24:15;;;;;;;3.67;2.60;;;14.50;99.90;;;;;;5051817;28;20451;-75
2021/08/04 05:26:42;;;;;;;2.93;2.33;;;14.50;99.90;;;;;;5050951;28;20999;-75
2021/08/04 05:29:09;;;;;;;2.37;2.17;;;14.50;99.90;;;;;;5050982;28;20466;-75
2021/08/04 05:31:36;;;;;;;2.73;2.53;;;14.50;99.90;;;;;;5050975;28;20481;-75
2021/08/04 05:34:02;;;;;;;4.20;2.13;;;14.60;99.90;;;;;;5050645;28;20477;-75
2021/08/04 05:36:29;;;;;;;3.07;2.77;;;14.60;99.90;;;;;;5050084;28;20857;-75
2021/08/04 05:38:57;;;;;;;3.77;2.73;;;14.60;99.90;;;;;;5051145;28;20463;-74
2021/08/04 05:41:25;;;;;;;3.97;2.63;;;14.70;99.90;;;;;;5050369;28;20460;-76
2021/08/04 05:43:52;;;;;;;2.93;2.27;;;14.70;99.90;;;;;;5050487;28;20478;-76
2021/08/04 05:46:19;;;;;;;2.97;2.57;;;14.70;99.90;;;;;;5123516;22;21016;-70
2021/08/04 05:48:45;;;;;;;6.20;2.83;;;14.70;99.90;;;;;;5090292;28;20461;-70
2021/08/04 05:51:12;;;;;;;3.10;2.90;;;14.80;99.90;;;;;;5090030;28;20464;-70
2021/08/04 05:53:39;;;;;;;3.97;3.10;;;14.80;99.90;;;;;;5090567;28;20465;-69
2021/08/04 05:56:06;;;;;;;4.10;3.40;;;14.80;99.90;;;;;;5077255;28;20525;-69
2021/08/04 05:58:34;;;;;;;3.30;2.57;;;14.80;99.90;;;;;;5060148;28;20463;-69
2021/08/04 06:01:01;;;;;;;2.53;2.30;;;14.80;99.90;;;;;;5069637;28;20912;-69
2021/08/04 06:03:27;;;;;;;2.43;2.23;;;14.80;99.90;;;;;;5070549;28;20462;-70
2021/08/04 06:05:54;;;;;;;3.40;2.30;;;14.80;99.90;;;;;;5070182;28;20523;-70
2021/08/04 06:08:21;;;;;;;3.07;2.77;;;14.90;99.90;;;;;;5070848;28;20462;-69
2021/08/04 06:10:47;;;;;;;3.20;2.63;;;14.90;99.90;;;;;;5069483;28;20949;-69
2021/08/04 06:13:14;;;;;;;2.73;2.53;;;14.90;99.90;;;;;;5070416;28;20458;-69
2021/08/04 06:15:42;;;;;;;5.67;2.50;;;14.90;99.90;;;;;;5069995;28;21066;-68
2021/08/04 06:18:09;;;;;;;2.80;2.40;;;14.90;99.90;;;;;;5070301;28;20830;-70
2021/08/04 06:20:36;;;;;;;2.43;2.23;;;14.90;99.90;;;;;;5069605;28;20458;-68
2021/08/04 06:23:02;;;;;;;3.37;2.90;;;14.90;99.90;;;;;;5070021;28;20466;-69
2021/08/04 06:25:29;;;;;;;3.10;2.50;;;15.00;99.90;;;;;;5070187;28;20474;-69
2021/08/04 06:27:56;;;;;;;2.73;2.53;;;15.00;99.90;;;;;;5069668;28;20466;-69
2021/08/04 06:30:23;;;;;;;3.33;2.50;;;15.00;99.90;;;;;;5069598;28;20488;-69
2021/08/04 06:32:51;;;;;;;2.90;2.40;;;15.00;99.90;;;;;;5069531;28;20572;-69
2021/08/04 06:35:17;;;;;;;3.77;2.57;;;15.00;99.90;;;;;;5069875;28;20487;-68
2021/08/04 06:37:44;;;;;;;3.20;2.90;;;15.00;99.90;;;;;;5069947;28;20461;-69
2021/08/04 06:40:12;;;;;;;4.10;2.40;;;15.00;99.90;;;;;;5069228;28;20470;-69
2021/08/04 06:42:39;;;;;;;2.63;2.43;;;15.00;99.90;;;;;;5069913;28;20463;-69
2021/08/04 06:45:07;;;;;;;5.00;2.47;;;15.10;99.90;;;;;;5069351;28;20846;-69
2021/08/04 06:47:33;;;;;;;2.70;2.50;;;15.10;99.90;;;;;;5069525;28;20474;-69
2021/08/04 06:50:02;;;;;;;3.53;2.73;;;15.20;99.90;;;;;;5068995;28;20471;-69
2021/08/04 06:52:28;;;;;;;2.30;2.10;;;15.20;99.90;;;;;;5069419;28;20981;-69
2021/08/04 06:54:55;;;;;;;2.53;2.33;;;15.30;99.90;;;;;;5069285;28;20487;-68
2021/08/04 06:57:22;;;;;;;3.00;2.23;;;15.30;99.90;;;;;;5069338;28;20462;-68
2021/08/04 06:59:49;;;;;;;3.10;2.10;;;15.30;99.90;;;;;;5068735;28;20466;-68
2021/08/04 07:02:16;;;;;;;3.30;2.63;;;15.40;99.90;;;;;;5069215;28;20832;-68
2021/08/04 07:04:42;;;;;;;3.20;2.50;;;15.40;99.90;;;;;;5068931;28;20488;-68
2021/08/04 07:07:15;;;;;;;2.70;2.20;;;15.40;99.90;;;;;;5069508;28;20462;-68
2021/08/04 07:09:41;;;;;;;2.60;2.23;;;15.50;99.90;;;;;;5068618;28;20517;-68
2021/08/04 07:12:10;;;;;;;2.93;2.47;;;15.50;99.90;;;;;;5069068;28;20454;-68
2021/08/04 07:14:37;;;;;;;2.10;2.00;;;15.50;99.90;;;;;;5068793;28;20486;-68
2021/08/04 07:17:05;;;;;;;2.83;2.10;;;15.50;99.90;;;;;;5069109;28;20467;-68
2021/08/04 07:19:32;;;;;;;2.17;1.97;;;15.50;99.90;;;;;;5068681;28;20458;-68
2021/08/04 07:21:58;;;;;;;3.13;2.37;;;15.60;99.90;;;;;;5068775;28;20548;-69
2021/08/04 07:24:27;;;;;;;2.60;2.40;;;15.70;99.90;;;;;;5069369;28;20954;-69
2021/08/04 07:26:54;;;;;;;2.50;2.30;;;15.70;99.90;;;;;;5068459;28;20479;-69
2021/08/04 07:29:21;;;;;;;2.80;2.30;;;15.80;99.90;;;;;;5068190;28;20771;-69
2021/08/04 07:31:48;;;;;;;3.20;2.40;;;15.90;99.90;;;;;;5068268;28;20495;-69
2021/08/04 07:34:17;;;;;;;2.83;2.40;;;16.00;99.90;;;;;;5068922;28;20849;-69
2021/08/04 07:36:44;;;;;;;3.70;2.40;;;16.10;99.90;;;;;;5068758;28;20489;-69
2021/08/04 07:39:11;;;;;;;2.40;2.20;;;16.30;99.90;;;;;;5068168;28;20462;-69
2021/08/04 07:41:39;;;;;;;4.00;3.00;;;16.40;99.90;;;;;;5068812;28;20463;-69
2021/08/04 07:44:06;;;;;;;2.60;2.30;;;16.60;99.90;;;;;;5068489;28;20463;-69
2021/08/04 07:46:33;;;;;;;2.30;1.87;;;16.70;99.90;;;;;;5068087;28;20860;-69
2021/08/04 07:49:00;;;;;;;2.20;2.03;;;16.80;99.90;;;;;;5067906;28;20484;-69
2021/08/04 07:51:26;;;;;;;2.40;2.20;;;16.90;99.90;;;;;;5066826;28;20553;-69
2021/08/04 07:53:53;;;;;;;2.70;2.50;;;16.90;99.90;;;;;;5068329;28;20829;-69
2021/08/04 07:56:22;;;;;;;2.87;2.50;;;17.00;99.90;;;;;;5068383;28;20493;-69
2021/08/04 07:58:51;;;;;;;2.40;2.20;;;17.00;99.90;;;;;;5067814;28;20819;-69
2021/08/04 08:01:18;;;;;;;2.23;2.03;;;17.00;99.90;;;;;;5067807;28;20962;-69
2021/08/04 08:03:46;;;;;;;2.83;2.20;;;17.00;99.90;;;;;;5068057;28;20462;-70
2021/08/04 08:06:13;;;;;;;2.60;2.40;;;17.00;99.90;;;;;;5068559;28;20560;-69
2021/08/04 08:08:39;;;;;;;2.43;2.23;;;17.00;99.90;;;;;;5068528;28;20462;-69
2021/08/04 08:11:06;;;;;;;4.67;2.60;;;16.90;99.90;;;;;;5068046;28;20462;-69
2021/08/04 08:13:33;;;;;;;2.97;1.80;;;16.90;99.90;;;;;;5068104;28;20466;-69
2021/08/04 08:16:01;;;;;;;3.43;2.40;;;16.90;99.90;;;;;;5068080;28;20513;-69
2021/08/04 08:18:28;;;;;;;2.87;2.27;;;16.90;99.90;;;;;;5068408;28;20964;-69
2021/08/04 08:20:55;;;;;;;2.40;2.20;;;16.90;99.90;;;;;;5067668;28;20510;-69
2021/08/04 08:23:22;;;;;;;3.60;2.33;;;16.90;99.90;;;;;;5068429;28;20469;-68
2021/08/04 08:25:49;;;;;;;2.13;1.93;;;17.00;99.90;;;;;;5067802;28;20485;-69
2021/08/04 08:28:16;;;;;;;2.93;2.10;;;17.00;99.90;;;;;;5068373;28;20478;-68
2021/08/04 08:30:44;;;;;;;2.43;2.23;;;17.00;99.90;;;;;;5067405;28;20493;-69
2021/08/04 08:33:12;;;;;;;2.27;2.07;;;16.90;99.90;;;;;;5068310;28;20980;-69
2021/08/04 08:35:39;;;;;;;2.30;1.67;;;16.90;99.90;;;;;;5068151;28;20494;-69
2021/08/04 08:38:06;;;;;;;2.17;1.97;;;16.90;99.90;;;;;;5068018;28;20471;-69
2021/08/04 08:40:33;;;;;;;2.37;2.17;;;16.90;99.90;;;;;;5067667;28;20458;-69
2021/08/04 08:43:00;;;;;;;3.40;2.60;;;17.00;99.90;;;;;;5067285;28;20469;-69
2021/08/04 08:45:28;;;;;;;3.13;2.30;;;17.00;99.90;;;;;;5068012;28;20497;-69
2021/08/04 08:47:56;;;;;;;6.47;2.00;;;17.00;99.90;;;;;;5067565;28;20462;-69
2021/08/04 08:50:26;;;;;;;2.37;2.17;;;17.00;99.90;;;;;;5067618;28;20976;-69
2021/08/04 08:52:53;;;;;;;2.77;2.30;;;17.00;99.90;;;;;;5064135;28;20466;-69
2021/08/04 08:55:21;;;;;;;2.97;2.10;;;17.00;99.90;;;;;;5065038;28;20585;-68
2021/08/04 08:57:47;;;;;;;2.30;2.10;;;17.00;99.90;;;;;;5066864;28;20462;-69
2021/08/04 09:00:15;;;;;;;2.00;1.90;;;17.10;99.90;;;;;;5064846;28;20650;-69
2021/08/04 09:02:44;;;;;;;2.37;2.00;;;17.10;99.90;;;;;;5065720;28;20490;-68
2021/08/04 09:05:13;;;;;;;2.20;2.00;;;17.20;99.90;;;;;;5066464;28;20474;-69
2021/08/04 09:07:43;;;;;;;2.50;2.30;;;17.20;99.90;;;;;;5065701;28;20466;-69
2021/08/04 09:10:23;;;;;;;2.40;2.20;;;17.20;99.90;;;;;;5065857;28;20541;-70
2021/08/04 09:12:51;;;;;;;2.70;2.00;;;17.30;99.90;;;;;;5068371;28;20454;-70
2021/08/04 09:15:26;;;;;;;2.77;2.23;;;17.30;99.90;;;;;;5069726;28;20493;-68
2021/08/04 09:18:06;;;;;;;3.43;2.30;;;17.40;99.90;;;;;;5069291;28;20511;-69
2021/08/04 09:20:46;;;;;;;2.60;2.00;;;17.50;99.90;;;;;;5069588;28;20454;-69
2021/08/04 09:23:17;;;;;;;3.20;2.90;;;17.60;99.90;;;;;;5069495;28;20942;-69
2021/08/04 09:26:02;;;;;;;2.00;1.80;;;17.60;99.90;;;;;;5069674;28;20561;-69
2021/08/04 09:28:30;;;;;;;2.90;2.60;;;17.60;99.90;;;;;;5069506;28;20511;-69
2021/08/04 09:31:02;;;;;;;2.63;2.43;;;17.50;99.90;;;;;;5068123;28;20454;-69
2021/08/04 09:33:36;;;;;;;2.50;2.30;;;17.50;99.90;;;;;;5069838;28;20815;-69
2021/08/04 09:36:04;;;;;;;2.17;1.97;;;17.40;99.90;;;;;;5069620;28;20794;-68
2021/08/04 09:38:32;;;;;;;2.00;1.87;;;17.40;99.90;;;;;;5069500;28;20464;-69
2021/08/04 09:41:15;;;;;;;2.40;2.10;;;17.40;99.90;;;;;;5069248;28;20834;-69
2021/08/04 09:43:44;;;;;;;3.83;2.00;;;17.30;99.90;;;;;;5069312;28;20564;-69
2021/08/04 09:46:22;;;;;;;2.77;2.20;;;17.30;99.90;;;;;;5069096;28;20482;-69
2021/08/04 09:48:49;;;;;;;2.63;2.17;;;17.30;99.90;;;;;;5069295;28;20458;-69
2021/08/04 09:51:18;;;;;;;3.33;2.60;;;17.30;99.90;;;;;;5069008;28;20466;-69
2021/08/04 09:53:49;;;;;;;2.80;2.40;;;17.30;99.90;;;;;;5069021;28;20454;-69
2021/08/04 09:56:18;;;;;;;3.07;2.57;;;17.30;99.90;;;;;;5068897;28;20573;-69
2021/08/04 09:58:47;;;;;;;2.90;2.50;;;17.30;99.90;;;;;;5068989;28;20463;-69
2021/08/04 10:01:15;;;;;;;3.40;3.10;;;17.30;99.90;;;;;;5068348;28;20454;-69
2021/08/04 10:04:01;;;;;;;3.90;2.77;;;17.30;99.90;;;;;;5068521;28;20481;-69
2021/08/04 10:06:29;;;;;;;2.00;1.80;;;17.20;99.90;;;;;;5068298;28;20481;-68
2021/08/04 10:09:00;;;;;;;2.50;2.30;;;17.30;99.90;;;;;;5068215;28;20478;-69
2021/08/04 10:11:27;;;;;;;2.30;2.00;;;17.20;99.90;;;;;;5068613;28;20454;-69
2021/08/04 10:13:56;;;;;;;4.30;2.70;;;17.20;99.90;;;;;;5068105;28;20458;-69
2021/08/04 10:16:25;;;;;;;3.67;2.40;;;17.20;99.90;;;;;;5068781;28;20573;-69
2021/08/04 10:18:53;;;;;;;2.40;2.03;;;17.20;99.90;;;;;;5068514;28;21012;-69
2021/08/04 10:21:21;;;;;;;4.00;3.17;;;17.20;99.90;;;;;;5067385;28;20465;-69
2021/08/04 10:23:50;;;;;;;5.50;4.90;;;17.20;99.90;;;;;;5068096;28;20458;-69
2021/08/04 10:26:19;;;;;;;6.67;4.10;;;17.20;99.90;;;;;;5068364;28;20557;-69
2021/08/04 10:28:51;;;;;;;2.90;2.70;;;17.30;99.90;;;;;;5068091;28;20553;-69
2021/08/04 10:31:20;;;;;;;4.40;2.47;;;17.30;99.90;;;;;;5068129;28;20999;-69
2021/08/04 10:33:48;;;;;;;2.80;2.50;;;17.30;99.90;;;;;;5067979;28;20972;-69
2021/08/04 10:36:16;;;;;;;2.80;2.27;;;17.40;99.90;;;;;;5071395;28;20525;-69
2021/08/04 10:38:47;;;;;;;3.10;2.57;;;17.40;99.90;;;;;;5069072;28;20469;-68
2021/08/04 10:41:16;;;;;;;2.70;2.20;;;17.40;99.90;;;;;;5067615;28;20467;-69
2021/08/04 10:43:47;;;;;;;2.67;1.90;;;17.40;99.90;;;;;;5067535;28;20462;-69
2021/08/04 10:46:41;;;;;;;2.60;2.40;;;17.40;99.90;;;;;;5067841;28;20493;-69
2021/08/04 10:49:20;;;;;;;2.43;2.23;;;17.40;99.90;;;;;;5067310;28;20490;-69
2021/08/04 10:52:07;;;;;;;2.80;2.43;;;17.40;99.90;;;;;;5066798;28;20957;-69
2021/08/04 10:54:34;;;;;;;3.03;2.73;;;17.50;99.90;;;;;;5067669;28;20473;-68
2021/08/04 10:57:12;;;;;;;3.03;2.27;;;17.60;99.90;;;;;;5067176;28;21092;-68
2021/08/04 10:59:41;;;;;;;2.47;2.27;;;17.70;99.90;;;;;;5066729;28;20466;-69
2021/08/04 11:02:31;;;;;;;2.70;2.50;;;17.80;99.90;;;;;;5067452;28;20473;-69
2021/08/04 11:04:59;;;;;;;3.07;2.30;;;17.90;99.90;;;;;;5067399;28;20589;-69
2021/08/04 11:07:27;;;;;;;5.50;2.37;;;18.00;99.90;;;;;;5067406;28;20465;-69
2021/08/04 11:10:06;;;;;;;2.40;2.20;;;18.00;99.90;;;;;;5066765;28;21071;-69
2021/08/04 11:12:44;;;;;;;3.10;2.87;;;18.00;99.90;;;;;;5067568;28;20524;-69
2021/08/04 11:15:30;;;;;;;4.93;2.40;;;18.00;99.90;;;;;;5067396;28;20481;-69
2021/08/04 11:18:08;;;;;;;2.60;2.40;;;18.00;99.90;;;;;;5067071;28;20486;-69
2021/08/04 11:20:38;;;;;;;2.13;1.90;;;18.20;99.90;;;;;;5066553;28;20957;-69
2021/08/04 11:23:08;;;;;;;2.20;2.00;;;18.30;99.90;;;;;;5066978;28;20475;-69
2021/08/04 11:25:41;;;;;;;2.30;2.10;;;18.40;99.90;;;;;;5067272;28;20535;-69
2021/08/04 11:28:19;;;;;;;2.40;2.20;;;18.50;99.90;;;;;;5067518;28;20508;-69
2021/08/04 11:30:50;;;;;;;2.17;1.97;;;18.60;99.90;;;;;;5066490;28;20864;-69
2021/08/04 11:33:34;;;;;;;2.10;1.90;;;18.60;99.90;;;;;;5066996;28;20844;-69
2021/08/04 11:36:15;;;;;;;3.13;2.30;;;18.70;99.90;;;;;;5066231;28;20497;-69
2021/08/04 11:38:48;;;;;;;4.60;2.30;;;18.70;99.90;;;;;;5075999;28;20465;-68
2021/08/04 11:41:33;;;;;;;2.27;1.90;;;18.70;99.90;;;;;;5086143;28;20472;-69
2021/08/04 11:44:10;;;;;;;2.10;1.90;;;18.70;99.90;;;;;;5086325;28;20838;-69
2021/08/04 11:46:41;;;;;;;3.23;1.90;;;18.70;99.90;;;;;;5066322;28;20486;-69
2021/08/04 11:49:12;;;;;;;2.70;2.50;;;18.70;99.90;;;;;;5065554;28;20463;-68
2021/08/04 11:51:42;;;;;;;2.50;2.30;;;18.70;99.90;;;;;;5066227;28;20465;-69
2021/08/04 11:54:10;;;;;;;2.57;2.37;;;18.70;99.90;;;;;;5066385;28;20573;-69
2021/08/04 11:56:47;;;;;;;2.57;2.37;;;18.70;99.90;;;;;;5066501;28;20490;-69
2021/08/04 11:59:15;;;;;;;4.37;2.43;;;18.80;99.90;;;;;;5065527;28;20469;-69
2021/08/04 12:01:59;;;;;;;2.40;2.20;;;18.80;99.90;;;;;;5066064;28;20463;-69
2021/08/04 12:04:27;;;;;;;2.13;1.93;;;18.80;99.90;;;;;;5066401;28;20470;-69
2021/08/04 12:06:59;;;;;;;2.87;2.10;;;18.80;99.90;;;;;;5065261;28;20478;-69
2021/08/04 12:09:28;;;;;;;2.10;1.90;;;18.90;99.90;;;;;;5065823;28;20469;-69
2021/08/04 12:11:56;;;;;;;2.40;2.20;;;18.90;99.90;;;;;;5065162;28;20466;-69
2021/08/04 12:14:23;;;;;;;2.50;2.30;;;19.00;99.90;;;;;;5065920;28;20465;-69
2021/08/04 12:16:56;;;;;;;2.33;1.93;;;19.00;99.90;;;;;;5065518;28;20513;-69
2021/08/04 12:19:48;;;;;;;2.80;1.93;;;19.00;99.90;;;;;;5065364;28;20458;-69
2021/08/04 12:22:23;;;;;;;2.13;1.93;;;19.00;99.90;;;;;;5046812;28;20462;-69
2021/08/04 12:24:53;;;;;;;2.30;1.90;;;18.90;99.90;;;;;;5065467;28;20490;-69
2021/08/04 12:27:38;;;;;;;3.40;2.30;;;19.00;99.90;;;;;;5065843;28;20455;-69
2021/08/04 12:30:21;;;;;;;2.13;1.97;;;18.90;99.90;;;;;;5064962;28;20469;-69
2021/08/04 12:32:56;;;;;;;2.17;1.97;;;19.00;99.90;;;;;;5064893;28;20486;-69
2021/08/04 12:35:25;;;;;;;2.50;2.30;;;19.00;99.90;;;;;;5065343;28;20476;-70
2021/08/04 12:37:52;;;;;;;3.30;2.37;;;19.00;99.90;;;;;;5065073;28;20549;-69
2021/08/04 12:40:20;;;;;;;2.63;2.10;;;19.00;99.90;;;;;;5065571;28;20466;-69
2021/08/04 12:42:46;;;;;;;2.47;2.27;;;19.00;99.90;;;;;;5064734;28;20473;-69
2021/08/04 12:45:25;;;;;;;2.83;2.40;;;19.00;99.90;;;;;;5066248;28;20486;-69
2021/08/04 12:47:56;;;;;;;3.40;1.70;;;19.00;99.90;;;;;;5069437;28;20465;-69
2021/08/04 12:50:25;;;;;;;1.90;1.80;;;19.00;99.90;;;;;;5068546;28;20508;-69
2021/08/04 12:52:52;;;;;;;2.10;1.90;;;18.90;99.90;;;;;;5069116;28;20469;-69
2021/08/04 12:55:19;;;;;;;2.20;2.00;;;18.90;99.90;;;;;;5069316;28;20482;-69
2021/08/04 12:57:46;;;;;;;2.03;1.83;;;18.80;99.90;;;;;;5069217;28;20493;-69